Rinconado, New Mexico
Current Conditions -  °F | °C
As of 2:55 PM on Thursday 23 Oct 2014 (Local Time) from KLAM Reporting Station
Clear Clear  
Wind Chill: 65°   Ceiling: Unl
Heat Index: 65°   Visibility: 10mi
Dew Point: 32°   Wind: 0mph
Humidity: 29%   Direction: NA
Pressure: 30.29"   Gusts: NA
Location:  36.1441°N, 105.996°W
Report Text: KLAM 232055Z AUTO 00000KT 10SM CLR 18/00 A3029 RMK AO2 T01811001
Loading
Personal Weather Stations






























Interactive Weather Map
Tropical Storm Tracking
New forecast layout! Learn more

10-Day Weather Forecast

Advertisements
Track Severe Weather on mobile